East Boldon, United Kingdom
Current Conditions -  °F | °C
As of 5:20 PM on Thursday 27 Nov 2014 (Local Time) from EGNT Reporting Station
Broken Clouds Broken Clouds  
Wind Chill:   Ceiling: 1200
Heat Index:   Visibility: 5mi
Dew Point:   Wind: 2mph
Humidity: 100%   Direction: 110°ESE
Pressure: 29.56"   Gusts: NA
Location:  54.95°N, 1.42°W
Report Text: EGNT 271720Z 11002KT 8000 SCT004 BKN012 09/09 Q1001
Loading
Personal Weather Stations






























Interactive Weather Map New forecast layout! Learn more

10-Day Weather Forecast

Advertisements
Track Severe Weather on mobile